Time;durP1;ratioP1;P1;durP2;ratioP2;P2;SDS_P1;SDS_P2;PMS_P1;PMS_P2;Temp;Humidity;BMP_temperature;BMP_pressure;BME280_temperature;BME280_humidity;BME280_pressure;Samples;Min_cycle;Max_cycle;Signal;HPM_P1;HPM_P2
2022/08/01 00:00:01;;;;;;;10.77;8.20;;;;;;;14.13;79.41;98310.31;5029225;28;20108;-79
2022/08/01 00:02:27;;;;;;;8.50;7.45;;;;;;;14.12;79.48;98308.69;5029079;28;20033;-79
2022/08/01 00:04:54;;;;;;;7.85;6.72;;;;;;;14.10;79.55;98302.69;5029230;28;20120;-79
2022/08/01 00:07:20;;;;;;;8.55;6.78;;;;;;;14.07;79.30;98309.69;5029008;28;20049;-79
2022/08/01 00:09:45;;;;;;;7.32;5.93;;;;;;;14.06;79.73;98312.78;5029497;28;20033;-79
2022/08/01 00:12:11;;;;;;;7.75;6.95;;;;;;;14.05;79.45;98311.16;5028846;28;20042;-79
2022/08/01 00:14:36;;;;;;;11.50;8.32;;;;;;;14.04;79.58;98306.78;5029195;28;20535;-79
2022/08/01 00:17:02;;;;;;;10.98;7.95;;;;;;;14.02;79.29;98300.78;5029262;28;20148;-79
2022/08/01 00:19:28;;;;;;;9.93;7.35;;;;;;;13.99;79.76;98294.75;5029101;28;20045;-78
2022/08/01 00:21:53;;;;;;;9.23;7.03;;;;;;;13.97;79.84;98298.97;5027133;28;20041;-79
2022/08/01 00:24:19;;;;;;;10.48;8.20;;;;;;;13.92;79.51;98297.19;5028533;28;20045;-78
2022/08/01 00:26:44;;;;;;;9.38;7.72;;;;;;;13.91;79.47;98301.06;5027726;28;20413;-79
2022/08/01 00:29:09;;;;;;;10.70;8.18;;;;;;;13.90;79.30;98298.63;5029138;28;20029;-79
2022/08/01 00:31:35;;;;;;;9.43;8.43;;;;;;;13.89;79.54;98291.50;5034437;28;20029;-79
2022/08/01 00:34:00;;;;;;;8.60;7.35;;;;;;;13.84;79.25;98292.47;5033868;28;20021;-79
2022/08/01 00:36:26;;;;;;;9.18;8.13;;;;;;;13.81;79.51;98296.69;5028636;28;20033;-79
2022/08/01 00:38:51;;;;;;;10.70;8.25;;;;;;;13.81;79.59;98298.63;5028695;28;20048;-76
2022/08/01 00:41:17;;;;;;;9.43;8.00;;;;;;;13.82;79.62;98294.72;5027181;28;20036;-76
2022/08/01 00:43:43;;;;;;;9.77;7.82;;;;;;;13.81;79.68;98296.69;5035490;28;20151;-77
2022/08/01 00:46:08;;;;;;;11.50;8.50;;;;;;;13.81;79.57;98295.88;5028573;28;20402;-77
2022/08/01 00:48:34;;;;;;;8.70;7.63;;;;;;;13.80;79.64;98289.56;5028511;28;20052;-77
2022/08/01 00:50:59;;;;;;;7.53;6.40;;;;;;;13.79;79.72;98287.09;5028300;28;20486;-76
2022/08/01 00:53:25;;;;;;;9.27;8.07;;;;;;;13.75;79.37;98292.47;5027949;28;20285;-76
2022/08/01 00:55:50;;;;;;;9.43;8.40;;;;;;;13.75;79.65;98289.69;5028598;28;20040;-76
2022/08/01 00:58:17;;;;;;;10.23;8.43;;;;;;;13.72;79.63;98295.03;5028306;28;20021;-76
2022/08/01 01:00:42;;;;;;;10.40;8.27;;;;;;;13.70;79.56;98292.59;5028325;28;20108;-76
2022/08/01 01:03:08;;;;;;;10.40;8.50;;;;;;;13.70;79.79;98287.88;5026878;28;20149;-76
2022/08/01 01:05:44;;;;;;;10.52;8.55;;;;;;;13.72;79.91;98290.34;5028346;28;20018;-76
2022/08/01 01:08:26;;;;;;;9.10;8.00;;;;;;;13.74;79.94;98290.00;5028142;28;20111;-78
2022/08/01 01:10:57;;;;;;;8.93;8.02;;;;;;;13.76;80.29;98291.31;5031661;28;20033;-78
2022/08/01 01:13:40;;;;;;;9.82;8.48;;;;;;;13.76;80.13;98290.50;5032672;28;20065;-79
2022/08/01 01:16:18;;;;;;;11.63;8.77;;;;;;;13.80;81.11;98286.81;5032694;28;20095;-78
2022/08/01 01:18:51;;;;;;;9.98;8.07;;;;;;;13.82;80.49;98290.03;5032110;28;20789;-78
2022/08/01 01:21:16;;;;;;;9.93;8.68;;;;;;;13.82;80.75;98284.53;5028844;28;20059;-78
2022/08/01 01:24:19;;;;;;;9.52;7.97;;;;;;;13.81;80.60;98288.41;5030020;28;20114;-78
2022/08/01 01:27:06;;;;;;;10.43;7.95;;;;;;;13.82;80.71;98289.22;5032335;28;20056;-79
2022/08/01 01:29:34;;;;;;;8.25;7.45;;;;;;;13.84;80.74;98279.50;5032621;28;20498;-78
2022/08/01 01:32:22;;;;;;;9.52;7.65;;;;;;;13.84;80.80;98278.69;5032519;28;20025;-79
2022/08/01 01:34:50;;;;;;;10.48;7.65;;;;;;;13.85;80.75;98280.31;5032915;28;20029;-79
2022/08/01 01:37:18;;;;;;;9.45;8.18;;;;;;;13.84;81.00;98274.00;5032921;28;20079;-78
2022/08/01 01:39:48;;;;;;;7.47;6.72;;;;;;;13.84;81.07;98286.94;5032534;28;20033;-78
2022/08/01 01:42:16;;;;;;;9.57;7.82;;;;;;;13.88;80.89;98278.84;5032598;28;20393;-78
2022/08/01 01:44:44;;;;;;;8.05;7.03;;;;;;;13.88;81.18;98279.66;5032805;28;20040;-79
2022/08/01 01:47:12;;;;;;;9.38;7.13;;;;;;;13.87;81.05;98280.78;5032688;28;20120;-79
2022/08/01 01:49:41;;;;;;;8.65;7.25;;;;;;;13.87;81.01;98278.03;5036430;28;20052;-79
2022/08/01 01:52:08;;;;;;;9.57;7.18;;;;;;;13.87;80.99;98280.78;5031023;28;20064;-79
2022/08/01 01:54:39;;;;;;;7.63;6.65;;;;;;;13.85;81.24;98272.03;5031856;28;20105;-79
2022/08/01 01:57:06;;;;;;;9.20;7.70;;;;;;;13.84;81.24;98278.69;5031618;28;20018;-79
2022/08/01 01:59:34;;;;;;;10.35;7.13;;;;;;;13.82;81.27;98280.94;5031623;28;20490;-78
2022/08/01 02:02:03;;;;;;;8.60;6.85;;;;;;;13.82;80.94;98281.78;5031310;28;20511;-79
2022/08/01 02:04:30;;;;;;;8.45;7.28;;;;;;;13.82;81.17;98278.19;5031587;28;20380;-79
2022/08/01 02:06:57;;;;;;;10.38;7.13;;;;;;;13.80;81.06;98281.28;5031223;28;20014;-79
2022/08/01 02:09:24;;;;;;;8.52;6.72;;;;;;;13.80;80.83;98275.78;5032071;28;20068;-79
2022/08/01 02:11:50;;;;;;;8.77;6.85;;;;;;;13.78;81.40;98277.22;5031531;28;20087;-79
2022/08/01 02:14:18;;;;;;;8.38;6.47;;;;;;;13.75;81.12;98277.84;5031430;28;20029;-79
2022/08/01 02:16:48;;;;;;;8.30;6.47;;;;;;;13.74;81.27;98277.06;5031288;28;20033;-79
2022/08/01 02:19:15;;;;;;;8.45;6.32;;;;;;;13.74;81.11;98278.97;5031384;28;20052;-79
2022/08/01 02:22:01;;;;;;;7.55;6.50;;;;;;;13.70;81.61;98282.38;5029937;28;20088;-79
2022/08/01 02:24:54;;;;;;;7.78;6.50;;;;;;;13.65;81.32;98276.22;5031700;28;20038;-79
2022/08/01 02:28:04;;;;;;;8.25;6.80;;;;;;;13.63;81.23;98278.50;5031290;28;20041;-79
2022/08/01 02:30:42;;;;;;;8.45;6.65;;;;;;;13.62;81.32;98277.69;5041466;28;20148;-79
2022/08/01 02:33:12;;;;;;;8.70;6.63;;;;;;;13.61;81.44;98275.25;5031112;28;20056;-79
2022/08/01 02:35:41;;;;;;;10.25;7.03;;;;;;;13.59;81.43;98278.31;5030946;28;20116;-79
2022/08/01 02:38:11;;;;;;;7.93;6.45;;;;;;;13.58;81.15;98275.88;5031296;28;20068;-79
2022/08/01 02:40:41;;;;;;;9.13;5.97;;;;;;;13.57;81.35;98268.75;5031063;28;20488;-79
2022/08/01 02:43:09;;;;;;;6.28;5.68;;;;;;;13.55;81.16;98269.88;5028558;28;20033;-79
2022/08/01 02:45:39;;;;;;;6.38;5.78;;;;;;;13.55;81.47;98274.59;5031775;28;20026;-79
2022/08/01 02:48:15;;;;;;;8.93;6.30;;;;;;;13.52;81.22;98269.72;5031918;28;20434;-79
2022/08/01 02:50:48;;;;;;;6.65;5.85;;;;;;;13.49;81.24;98267.59;5031670;28;20025;-79
2022/08/01 02:53:17;;;;;;;6.78;5.97;;;;;;;13.46;81.07;98268.25;5031368;28;20030;-78
2022/08/01 02:55:47;;;;;;;9.07;6.47;;;;;;;13.44;81.07;98273.25;5031462;28;20018;-79
2022/08/01 02:58:15;;;;;;;9.60;6.45;;;;;;;13.43;81.08;98277.97;5031606;28;20101;-80
2022/08/01 03:00:42;;;;;;;8.10;6.53;;;;;;;13.43;81.04;98274.38;5031401;28;20041;-79
2022/08/01 03:03:09;;;;;;;7.18;6.30;;;;;;;13.41;81.13;98274.72;5031035;28;20061;-79
2022/08/01 03:05:36;;;;;;;8.95;6.22;;;;;;;13.39;80.80;98283.25;5031129;28;20022;-79
2022/08/01 03:08:02;;;;;;;7.88;6.35;;;;;;;13.36;81.11;98270.13;5031373;28;20033;-79
2022/08/01 03:10:29;;;;;;;9.60;6.88;;;;;;;13.34;80.95;98274.34;5030885;28;20029;-79
2022/08/01 03:12:57;;;;;;;6.60;5.97;;;;;;;13.32;80.80;98271.88;5030432;28;20044;-79
2022/08/01 03:15:26;;;;;;;7.97;5.97;;;;;;;13.30;80.78;98271.38;5031695;28;20076;-79
2022/08/01 03:17:52;;;;;;;6.65;5.60;;;;;;;13.29;80.78;98269.75;5031120;28;20025;-79
2022/08/01 03:20:20;;;;;;;7.38;5.50;;;;;;;13.29;80.79;98271.72;5030762;28;20125;-79
2022/08/01 03:22:48;;;;;;;8.73;5.90;;;;;;;13.27;80.60;98272.03;5030663;28;20044;-79
2022/08/01 03:25:15;;;;;;;7.43;5.50;;;;;;;13.28;80.78;98281.91;5031413;28;20037;-78
2022/08/01 03:27:45;;;;;;;8.07;5.53;;;;;;;13.28;80.75;98268.13;5030609;28;20120;-79
2022/08/01 03:30:12;;;;;;;9.40;5.90;;;;;;;13.28;80.95;98272.84;5031078;28;20071;-79
2022/08/01 03:32:38;;;;;;;7.47;5.75;;;;;;;13.27;80.82;98277.53;5030537;28;20432;-79
2022/08/01 03:35:04;;;;;;;9.75;5.57;;;;;;;13.25;81.13;98274.28;5030423;28;20033;-78
2022/08/01 03:37:44;;;;;;;7.60;5.28;;;;;;;13.23;81.09;98285.63;5030928;28;20748;-79
2022/08/01 03:40:17;;;;;;;6.00;5.38;;;;;;;13.24;81.20;98278.19;5031123;28;20494;-79
2022/08/01 03:42:46;;;;;;;6.75;5.78;;;;;;;13.24;81.22;98273.50;5028764;28;20099;-79
2022/08/01 03:45:21;;;;;;;7.95;5.90;;;;;;;13.26;81.39;98275.91;5030571;28;20452;-79
2022/08/01 03:47:48;;;;;;;9.05;5.60;;;;;;;13.29;81.22;98279.97;5030574;28;20032;-79
2022/08/01 03:50:17;;;;;;;7.55;6.00;;;;;;;13.28;81.25;98281.91;5030429;28;20022;-79
2022/08/01 03:52:46;;;;;;;8.50;5.30;;;;;;;13.30;81.41;98281.59;5030355;28;20494;-79
2022/08/01 03:55:12;;;;;;;6.53;5.45;;;;;;;13.32;81.86;98279.34;5030631;28;20032;-79
2022/08/01 03:57:39;;;;;;;6.88;5.50;;;;;;;13.33;81.69;98279.00;5030556;28;20025;-79
2022/08/01 04:00:08;;;;;;;6.40;5.30;;;;;;;13.35;81.58;98285.03;5030432;28;20359;-79
2022/08/01 04:02:34;;;;;;;6.95;5.70;;;;;;;13.39;81.73;98283.25;5029862;28;20698;-80
2022/08/01 04:05:00;;;;;;;6.28;5.43;;;;;;;13.40;81.75;98284.88;5030360;28;20029;-79
2022/08/01 04:07:31;;;;;;;6.47;5.05;;;;;;;13.46;81.66;98284.75;5030364;28;20021;-79
2022/08/01 04:09:57;;;;;;;8.45;5.40;;;;;;;13.50;81.79;98283.00;5030332;28;20072;-79
2022/08/01 04:12:23;;;;;;;6.60;5.63;;;;;;;13.52;81.50;98284.28;5029868;28;20505;-79
2022/08/01 04:14:49;;;;;;;7.75;5.45;;;;;;;13.57;81.70;98279.75;5030389;28;20044;-79
2022/08/01 04:17:15;;;;;;;6.10;5.50;;;;;;;13.62;81.54;98280.44;5029993;28;20099;-78
2022/08/01 04:19:42;;;;;;;9.15;5.60;;;;;;;13.67;81.78;98288.53;5031920;28;20050;-78
2022/08/01 04:22:09;;;;;;;7.70;5.45;;;;;;;13.72;81.46;98286.75;5027373;28;20036;-78
2022/08/01 04:24:36;;;;;;;5.65;5.05;;;;;;;13.78;81.76;98288.22;5029022;28;20098;-78
2022/08/01 04:27:07;;;;;;;6.65;5.00;;;;;;;13.82;81.71;98291.97;5028348;28;20045;-78
2022/08/01 04:29:34;;;;;;;6.32;5.10;;;;;;;13.87;81.75;98293.75;5029983;28;20032;-78
2022/08/01 04:32:01;;;;;;;7.53;5.80;;;;;;;13.91;81.68;98295.56;5030430;28;20419;-78
2022/08/01 04:34:30;;;;;;;7.45;5.43;;;;;;;13.94;81.59;98292.16;5029996;28;20055;-79
2022/08/01 04:36:57;;;;;;;6.85;5.43;;;;;;;13.98;81.69;98295.06;5030153;28;20398;-79
2022/08/01 04:39:30;;;;;;;7.00;5.18;;;;;;;14.03;81.73;98302.41;5030246;28;20029;-79
2022/08/01 04:41:58;;;;;;;7.47;5.75;;;;;;;14.07;81.41;98293.13;5029838;28;20041;-79
2022/08/01 04:44:27;;;;;;;8.77;5.80;;;;;;;14.10;81.51;98286.16;5028868;28;20378;-79
2022/08/01 04:46:54;;;;;;;7.47;5.22;;;;;;;14.16;81.71;98295.09;5029892;28;20052;-79
2022/08/01 04:49:21;;;;;;;7.47;5.35;;;;;;;14.19;81.68;98298.00;5030336;28;20033;-79
2022/08/01 04:52:00;;;;;;;7.25;5.32;;;;;;;14.22;81.31;98296.56;5026692;28;20037;-79
2022/08/01 04:54:30;;;;;;;7.78;5.40;;;;;;;14.28;81.33;98290.56;5029623;28;20030;-79
2022/08/01 04:56:59;;;;;;;6.00;5.00;;;;;;;14.33;81.59;98291.53;5028596;28;20549;-79
2022/08/01 04:59:40;;;;;;;7.50;5.28;;;;;;;14.38;81.33;98286.63;5028547;28;20033;-80
2022/08/01 05:02:16;;;;;;;6.72;5.25;;;;;;;14.44;81.46;98279.03;5030419;28;20033;-80
2022/08/01 05:04:45;;;;;;;7.07;4.72;;;;;;;14.50;81.58;98285.19;5028959;28;20057;-78
2022/08/01 05:07:11;;;;;;;7.32;4.10;;;;;;;14.53;81.34;98285.31;5028838;28;20103;-79
2022/08/01 05:09:38;;;;;;;6.90;4.38;;;;;;;14.57;81.25;98271.69;5030242;28;20029;-79
2022/08/01 05:12:05;;;;;;;6.63;4.50;;;;;;;14.61;81.54;98272.66;5028460;28;20041;-79
2022/08/01 05:14:31;;;;;;;4.72;3.63;;;;;;;14.66;81.11;98269.75;5028673;28;20033;-79
2022/08/01 05:17:03;;;;;;;8.23;4.55;;;;;;;14.72;81.25;98267.63;5029186;28;20083;-79
2022/08/01 05:19:33;;;;;;;6.93;4.60;;;;;;;14.75;81.49;98280.78;5028350;28;20041;-79
2022/08/01 05:22:00;;;;;;;6.18;5.13;;;;;;;14.78;81.03;98271.84;5028373;28;20022;-79
2022/08/01 05:24:28;;;;;;;5.10;4.32;;;;;;;14.82;81.12;98272.81;5028634;28;20077;-80
2022/08/01 05:26:54;;;;;;;5.55;4.80;;;;;;;14.84;81.00;98278.00;5029874;28;20060;-79
2022/08/01 05:29:19;;;;;;;5.65;4.15;;;;;;;14.88;81.11;98276.19;5029111;28;20025;-79
2022/08/01 05:31:45;;;;;;;6.57;4.72;;;;;;;14.93;80.89;98275.19;5028293;28;20052;-80
2022/08/01 05:34:10;;;;;;;5.05;4.10;;;;;;;14.98;80.77;98280.53;5028781;28;20100;-79
2022/08/01 05:36:37;;;;;;;6.13;4.18;;;;;;;15.03;81.03;98278.44;5028897;28;20113;-80
2022/08/01 05:39:03;;;;;;;6.88;4.53;;;;;;;15.14;81.19;98275.28;5027499;28;20543;-79
2022/08/01 05:41:29;;;;;;;4.95;3.92;;;;;;;15.23;80.97;98280.78;5028394;28;20056;-78
2022/08/01 05:43:54;;;;;;;5.03;3.85;;;;;;;15.34;81.21;98293.06;5028219;28;20478;-79
2022/08/01 05:46:20;;;;;;;8.05;4.30;;;;;;;15.44;81.02;98281.66;5028733;28;20034;-79
2022/08/01 05:48:45;;;;;;;5.30;4.13;;;;;;;15.57;80.73;98285.31;5028461;28;20113;-78
2022/08/01 05:51:11;;;;;;;7.03;3.97;;;;;;;15.75;80.77;98285.22;5028146;28;20044;-79
2022/08/01 05:53:36;;;;;;;6.20;4.00;;;;;;;15.95;80.53;98291.97;5028239;28;20029;-79
2022/08/01 05:56:03;;;;;;;4.88;3.92;;;;;;;16.14;80.50;98291.50;5029339;28;20035;-78
2022/08/01 05:58:29;;;;;;;6.93;4.07;;;;;;;16.36;80.81;98287.56;5028811;28;20129;-76
2022/08/01 06:00:55;;;;;;;5.00;3.88;;;;;;;16.56;80.44;98290.63;5031884;28;20056;-76
2022/08/01 06:03:20;;;;;;;6.78;4.18;;;;;;;16.77;80.07;98293.34;5032289;28;20123;-76
2022/08/01 06:05:45;;;;;;;5.80;4.03;;;;;;;16.95;79.48;98291.19;5014544;28;20028;-76
2022/08/01 06:08:11;;;;;;;6.22;3.90;;;;;;;17.08;78.71;98292.09;5014081;28;20029;-77
2022/08/01 06:10:37;;;;;;;7.32;4.30;;;;;;;17.20;78.47;98288.50;5031178;28;20095;-76
2022/08/01 06:13:02;;;;;;;6.10;4.30;;;;;;;17.33;78.46;98289.34;5031508;28;20114;-77
2022/08/01 06:15:29;;;;;;;4.25;3.67;;;;;;;17.44;77.19;98295.22;5031887;28;20100;-78
2022/08/01 06:17:55;;;;;;;5.80;4.30;;;;;;;17.52;76.94;98297.06;5031924;28;20071;-77
2022/08/01 06:20:20;;;;;;;7.53;3.80;;;;;;;17.66;77.51;98295.94;5030882;28;20525;-77
2022/08/01 06:22:46;;;;;;;7.18;3.97;;;;;;;17.80;77.45;98293.59;5031207;28;20022;-76
2022/08/01 06:25:11;;;;;;;5.95;3.92;;;;;;;17.93;76.26;98299.91;5031043;28;20393;-78
2022/08/01 06:27:37;;;;;;;6.65;4.10;;;;;;;17.98;76.60;98296.09;5030700;28;20140;-80
2022/08/01 06:30:03;;;;;;;9.98;4.13;;;;;;;18.12;76.91;98304.09;5031454;28;20386;-78
2022/08/01 06:32:29;;;;;;;6.70;3.67;;;;;;;18.25;76.57;98304.84;5031236;28;20045;-77
2022/08/01 06:34:55;;;;;;;6.63;4.03;;;;;;;18.28;76.40;98304.97;5031113;28;20025;-77
2022/08/01 06:37:21;;;;;;;5.57;3.63;;;;;;;18.36;76.42;98303.22;5030992;28;20033;-78
2022/08/01 06:39:46;;;;;;;5.97;3.65;;;;;;;18.44;76.41;98310.59;5031360;28;20034;-79
2022/08/01 06:42:14;;;;;;;6.57;3.80;;;;;;;18.53;75.72;98304.88;5030529;28;20857;-77
2022/08/01 06:44:40;;;;;;;4.10;3.63;;;;;;;18.63;75.70;98302.75;5029394;28;20112;-77
2022/08/01 06:47:05;;;;;;;6.05;4.10;;;;;;;18.70;75.41;98300.97;5028250;28;20116;-79
2022/08/01 06:49:30;;;;;;;4.90;3.60;;;;;;;18.80;75.62;98304.41;5029719;28;20030;-79
2022/08/01 06:51:56;;;;;;;6.10;3.55;;;;;;;18.88;75.11;98300.69;5028879;28;20029;-77
2022/08/01 06:54:21;;;;;;;4.95;3.47;;;;;;;18.95;75.18;98298.06;5028680;28;20034;-77
2022/08/01 06:56:47;;;;;;;5.50;3.40;;;;;;;19.03;75.18;98299.09;5028188;28;20034;-78
2022/08/01 06:59:12;;;;;;;4.97;3.47;;;;;;;19.05;74.41;98299.56;5030548;28;20025;-78
2022/08/01 07:01:38;;;;;;;4.75;3.40;;;;;;;19.09;74.02;98305.19;5027614;28;20546;-82
2022/08/01 07:04:03;;;;;;;5.05;3.33;;;;;;;19.11;73.57;98302.88;5028974;28;20032;-81
2022/08/01 07:06:28;;;;;;;5.57;3.20;;;;;;;19.14;73.89;98304.94;5034118;28;20036;-83
2022/08/01 07:08:54;;;;;;;4.18;3.05;;;;;;;19.23;73.60;98305.59;5031465;28;20068;-79
2022/08/01 07:11:21;;;;;;;7.28;3.45;;;;;;;19.32;73.51;98305.41;5029912;28;20532;-86
2022/08/01 07:13:47;;;;;;;4.78;3.20;;;;;;;19.46;73.96;98304.94;5029498;28;20037;-78
2022/08/01 07:16:13;;;;;;;4.80;2.88;;;;;;;19.57;73.30;98288.50;5029682;28;20084;-78
2022/08/01 07:18:39;;;;;;;4.78;3.15;;;;;;;19.64;72.98;98283.13;5034642;28;20025;-79
2022/08/01 07:21:04;;;;;;;4.90;3.15;;;;;;;19.73;72.71;98286.50;5029873;28;20516;-81
2022/08/01 07:23:30;;;;;;;7.43;2.83;;;;;;;19.82;72.43;98283.53;5036970;28;20037;-79
2022/08/01 07:25:55;;;;;;;3.22;2.70;;;;;;;19.97;72.66;98287.47;5030201;28;20041;-80
2022/08/01 07:28:21;;;;;;;4.05;3.00;;;;;;;20.13;72.40;98292.19;5030560;28;20116;-81
2022/08/01 07:30:46;;;;;;;3.72;2.83;;;;;;;20.25;71.91;98294.84;5032902;28;20411;-81
2022/08/01 07:33:12;;;;;;;4.93;2.70;;;;;;;20.36;71.46;98286.72;5032457;28;20029;-82
2022/08/01 07:35:38;;;;;;;4.50;2.78;;;;;;;20.50;71.77;98295.38;5031147;28;20112;-82
2022/08/01 07:38:04;;;;;;;3.38;2.55;;;;;;;20.65;71.59;98288.09;5034378;28;20025;-84
2022/08/01 07:40:30;;;;;;;6.22;2.80;;;;;;;20.79;70.02;98290.38;5034262;28;20034;-79
2022/08/01 07:42:55;;;;;;;4.45;2.80;;;;;;;20.87;69.23;98293.31;5033047;28;20074;-78
2022/08/01 07:45:21;;;;;;;4.45;3.20;;;;;;;20.94;69.89;98294.25;5028456;28;20099;-78
2022/08/01 07:47:46;;;;;;;4.80;2.72;;;;;;;21.01;69.75;98293.56;5030384;28;20033;-77
2022/08/01 07:50:12;;;;;;;5.07;3.00;;;;;;;21.02;69.19;98284.00;5029973;28;20021;-79
2022/08/01 07:52:38;;;;;;;3.75;3.08;;;;;;;21.05;68.65;98293.63;5029851;28;20030;-77
2022/08/01 07:55:04;;;;;;;4.45;2.92;;;;;;;21.04;67.67;98295.59;5030553;28;20033;-81
2022/08/01 07:57:30;;;;;;;4.15;2.97;;;;;;;21.03;68.29;98293.19;5029840;28;20494;-83
2022/08/01 07:59:55;;;;;;;4.13;3.08;;;;;;;21.08;68.48;98302.06;5032709;28;20049;-80
2022/08/01 08:02:21;;;;;;;5.70;2.92;;;;;;;21.15;68.46;98303.38;5030928;28;20041;-79
2022/08/01 08:04:46;;;;;;;5.05;2.70;;;;;;;21.24;67.91;98292.78;5031310;28;20462;-82
2022/08/01 08:07:12;;;;;;;4.70;3.15;;;;;;;21.38;68.26;98297.78;5030317;28;20034;-85
2022/08/01 08:09:37;;;;;;;5.95;2.80;;;;;;;21.54;67.49;98298.47;5030632;28;20038;-85
2022/08/01 08:12:03;;;;;;;4.28;2.58;;;;;;;21.62;65.23;98293.81;5029276;28;20068;-81
2022/08/01 08:14:29;;;;;;;8.55;3.30;;;;;;;21.70;67.23;98298.34;5029103;28;20041;-77
2022/08/01 08:16:54;;;;;;;4.30;3.00;;;;;;;21.82;67.20;98294.53;5029069;28;20048;-77
2022/08/01 08:19:20;;;;;;;5.05;3.03;;;;;;;21.98;67.50;98290.78;5030151;28;20124;-83
2022/08/01 08:21:45;;;;;;;4.40;2.80;;;;;;;22.14;67.00;98294.16;5030852;28;20080;-82
2022/08/01 08:24:19;;;;;;;4.55;3.08;;;;;;;22.21;65.94;98301.81;5031145;28;20088;-83
2022/08/01 08:26:48;;;;;;;5.15;3.10;;;;;;;22.25;66.22;98305.47;5031300;28;20037;-82
2022/08/01 08:29:15;;;;;;;7.70;3.80;;;;;;;22.27;65.81;98302.31;5029155;28;20052;-85
2022/08/01 08:31:40;;;;;;;4.97;3.17;;;;;;;22.26;65.33;98309.09;5031156;28;20045;-81
2022/08/01 08:34:06;;;;;;;7.03;3.50;;;;;;;22.16;64.28;98313.34;5032129;28;20033;-86
2022/08/01 08:36:32;;;;;;;6.55;3.63;;;;;;;22.09;63.98;98314.03;5029090;28;20036;-80
2022/08/01 08:39:00;;;;;;;6.40;3.47;;;;;;;22.00;63.45;98310.75;5029308;28;20083;-79
2022/08/01 08:41:25;;;;;;;5.45;3.58;;;;;;;21.96;63.82;98316.25;5028134;28;20018;-76
2022/08/01 08:43:51;;;;;;;4.93;3.70;;;;;;;22.01;64.49;98317.91;5031648;28;20080;-90
2022/08/01 08:46:18;;;;;;;5.25;3.70;;;;;;;22.08;64.30;98315.22;5031874;28;20424;-81
2022/08/01 08:48:44;;;;;;;8.30;4.07;;;;;;;22.19;64.38;98317.38;5029195;28;20025;-81
2022/08/01 08:51:11;;;;;;;6.80;3.78;;;;;;;22.25;63.24;98324.25;5028660;28;20208;-80
2022/08/01 08:53:43;;;;;;;5.55;3.75;;;;;;;22.27;63.07;98322.66;5029437;28;20039;-81
2022/08/01 08:56:10;;;;;;;6.65;3.90;;;;;;;22.31;63.55;98329.09;5030477;28;20026;-82
2022/08/01 08:58:37;;;;;;;6.55;3.83;;;;;;;22.38;63.56;98325.63;5029331;28;20378;-80
2022/08/01 09:01:06;;;;;;;6.60;4.03;;;;;;;22.49;63.03;98322.16;5031860;28;20152;-85
2022/08/01 09:03:32;;;;;;;;;;;;;;;22.54;63.57;98327.44;5031399;28;20595;-81
2022/08/01 09:05:57;;;;;;;6.95;4.68;;;;;;;22.62;63.55;98331.94;5030956;28;19978;-82
2022/08/01 09:08:23;;;;;;;7.13;4.53;;;;;;;22.70;61.70;98338.41;5031820;28;20022;-81
2022/08/01 09:10:48;;;;;;;8.18;4.40;;;;;;;22.64;60.81;98343.53;5027756;28;20075;-82
2022/08/01 09:13:14;;;;;;;11.48;5.55;;;;;;;22.64;62.27;98328.75;5028816;28;20773;-85
2022/08/01 09:15:46;;;;;;;9.43;5.15;;;;;;;22.69;61.23;98337.63;5030161;28;20037;-85
2022/08/01 09:18:27;;;;;;;9.98;5.45;;;;;;;22.81;62.08;98338.56;5032366;28;20032;-85
2022/08/01 09:21:21;;;;;;;7.72;4.97;;;;;;;22.84;61.23;98335.78;5030919;28;20029;-77
2022/08/01 09:23:50;;;;;;;8.80;4.90;;;;;;;22.96;61.73;98336.72;5029663;28;20044;-81
2022/08/01 09:26:18;;;;;;;11.32;6.95;;;;;;;23.12;61.38;98337.28;5027563;28;20670;-88
2022/08/01 09:28:44;;;;;;;5.22;4.53;;;;;;;23.25;60.79;98339.84;5028641;28;20470;-82
2022/08/01 09:31:12;;;;;;;7.57;4.88;;;;;;;23.36;60.31;98337.94;5032878;28;20528;-84
2022/08/01 09:33:48;;;;;;;6.57;4.45;;;;;;;23.53;60.31;98330.09;5034326;28;20044;-83
2022/08/01 09:36:14;;;;;;;4.75;3.78;;;;;;;23.70;59.19;98340.63;5031737;28;20057;-81
2022/08/01 09:38:39;;;;;;;4.25;3.85;;;;;;;23.78;58.75;98339.50;5034253;28;20133;-79
2022/08/01 09:41:04;;;;;;;8.38;4.25;;;;;;;23.89;58.66;98341.56;5031236;28;20033;-81
2022/08/01 09:43:31;;;;;;;5.90;3.80;;;;;;;23.92;57.43;98344.41;5033057;28;20093;-83
2022/08/01 09:45:57;;;;;;;4.10;3.70;;;;;;;23.91;57.83;98344.78;5032596;28;20497;-82
2022/08/01 09:48:23;;;;;;;4.68;3.58;;;;;;;23.85;58.45;98340.72;5032596;28;20033;-80
2022/08/01 09:50:53;;;;;;;5.28;3.90;;;;;;;23.77;57.22;98337.06;5032277;28;20032;-80
2022/08/01 09:53:19;;;;;;;7.28;3.92;;;;;;;23.63;57.49;98334.97;5032344;28;20372;-78
2022/08/01 09:55:45;;;;;;;4.93;3.70;;;;;;;23.56;57.41;98332.94;5032901;28;20053;-77
2022/08/01 09:58:11;;;;;;;4.07;3.67;;;;;;;23.56;58.08;98341.31;5033003;28;20525;-79
2022/08/01 10:00:37;;;;;;;4.82;3.38;;;;;;;23.68;58.33;98331.00;5035230;28;20497;-80
2022/08/01 10:03:24;;;;;;;4.60;3.78;;;;;;;23.84;58.79;98333.53;5032593;28;20120;-80
2022/08/01 10:05:50;;;;;;;3.90;3.50;;;;;;;23.99;58.85;98335.25;5034265;28;20547;-76
2022/08/01 10:08:16;;;;;;;5.45;3.70;;;;;;;24.13;58.23;98325.34;5031829;28;20057;-78
2022/08/01 10:10:42;;;;;;;4.85;3.88;;;;;;;24.27;57.76;98333.81;5031741;28;20764;-77
2022/08/01 10:13:09;;;;;;;5.07;3.70;;;;;;;24.33;57.08;98334.28;5030450;28;20021;-79
2022/08/01 10:15:35;;;;;;;5.20;3.90;;;;;;;24.34;57.22;98335.88;5031637;28;20080;-79
2022/08/01 10:18:07;;;;;;;5.53;3.70;;;;;;;24.41;57.40;98335.09;5033097;28;20065;-78
2022/08/01 10:20:33;;;;;;;6.65;3.63;;;;;;;24.45;57.01;98338.72;5034273;28;20394;-78
2022/08/01 10:23:03;;;;;;;6.50;3.72;;;;;;;24.50;57.08;98341.94;5035028;28;20397;-79
2022/08/01 10:25:36;;;;;;;5.97;3.90;;;;;;;24.52;57.08;98342.38;5031974;28;20492;-79
2022/08/01 10:28:16;;;;;;;4.00;3.60;;;;;;;24.51;56.62;98337.94;5028026;28;20028;-79
2022/08/01 10:31:16;;;;;;;4.53;4.10;;;;;;;24.39;56.73;98346.72;5030789;28;20147;-79
2022/08/01 10:33:42;;;;;;;4.50;3.70;;;;;;;24.28;56.82;98345.84;5026843;28;20041;-81
2022/08/01 10:36:08;;;;;;;5.03;3.97;;;;;;;24.14;56.34;98350.16;5026531;28;20040;-81
2022/08/01 10:38:34;;;;;;;4.22;3.53;;;;;;;24.01;56.70;98358.09;5028315;28;20189;-81
2022/08/01 10:41:02;;;;;;;4.82;4.30;;;;;;;23.83;56.70;98354.34;5026467;28;20474;-78
2022/08/01 10:43:28;;;;;;;4.07;3.60;;;;;;;23.67;56.96;98352.59;5030529;28;20029;-78
2022/08/01 10:45:54;;;;;;;4.60;3.65;;;;;;;23.59;57.28;98356.53;5032957;28;20386;-82
2022/08/01 10:48:27;;;;;;;6.68;4.03;;;;;;;23.47;56.90;98354.84;5029441;28;20142;-82
2022/08/01 10:50:54;;;;;;;10.60;5.97;;;;;;;23.35;56.95;98353.13;5028591;28;20172;-79
2022/08/01 10:53:23;;;;;;;6.28;4.20;;;;;;;23.34;57.72;98357.13;5029830;28;20044;-81
2022/08/01 10:56:00;;;;;;;4.45;4.05;;;;;;;23.32;57.74;98354.69;5032100;28;20423;-81
2022/08/01 10:58:36;;;;;;;7.72;4.13;;;;;;;23.31;57.09;98355.88;5031179;28;20029;-81
2022/08/01 11:01:14;;;;;;;8.45;6.20;;;;;;;23.31;57.76;98352.28;5032082;28;20030;-80
2022/08/01 11:03:41;;;;;;;4.78;4.30;;;;;;;23.39;57.69;98353.97;5030285;28;20029;-78
2022/08/01 11:06:16;;;;;;;4.38;3.97;;;;;;;23.37;57.76;98355.53;5030860;28;20555;-79
2022/08/01 11:08:50;;;;;;;4.65;3.92;;;;;;;23.30;57.74;98353.47;5032723;28;20028;-85
2022/08/01 11:11:16;;;;;;;5.32;4.32;;;;;;;23.28;58.30;98353.84;5031108;28;20160;-83
2022/08/01 11:14:12;;;;;;;6.45;3.83;;;;;;;23.33;58.20;98361.88;5031009;28;20112;-76
2022/08/01 11:16:40;;;;;;;4.20;3.80;;;;;;;23.36;58.44;98360.34;5030673;28;20028;-79
2022/08/01 11:19:10;;;;;;;6.40;3.95;;;;;;;23.34;58.62;98360.69;5029653;28;20053;-80
2022/08/01 11:21:54;;;;;;;7.13;3.85;;;;;;;23.33;58.48;98361.09;5031834;28;20380;-77
2022/08/01 11:24:48;;;;;;;4.22;3.83;;;;;;;23.35;58.47;98364.31;5027588;28;20072;-77
2022/08/01 11:27:17;;;;;;;4.47;4.07;;;;;;;23.30;58.57;98359.88;5030986;28;20496;-76
2022/08/01 11:29:43;;;;;;;7.15;4.25;;;;;;;23.23;58.56;98356.19;5026933;28;20025;-75
2022/08/01 11:32:26;;;;;;;6.40;3.88;;;;;;;23.18;59.07;98346.94;5028696;28;20378;-75
2022/08/01 11:34:55;;;;;;;6.45;3.92;;;;;;;23.15;58.79;98347.69;5025848;28;20029;-75
2022/08/01 11:37:25;;;;;;;4.38;3.97;;;;;;;23.11;58.67;98346.84;5029161;28;20485;-76
2022/08/01 11:40:15;;;;;;;4.68;3.90;;;;;;;23.13;58.97;98344.47;5031320;28;20039;-76